.
WxDataArchive / Data Records for 2013-12-13
2013-12-12 December 2013 2013-12-14

Data Records for Friday, 13 December 2013

Time	Temp	Chill	HIndex	Humid	Dewpt	 Wind 	HiWind	WindDir	Rain 	Barom 
-----	----	-----	------	-----	-----	------	------	-------	-----	----- 
00:00	16.7	16.7	16.7	56	3.8	2	9	248	0.00	30.284 
00:05	16.5	16.5	16.5	56	3.6	1	6	248	0.00	30.284 
00:10	16.5	16.5	16.5	56	3.6	1	5	248	0.00	30.284 
00:15	16.5	16.5	16.5	56	3.6	1	5	248	0.00	30.290 
00:20	16.4	16.4	16.4	56	3.5	1	3	248	0.00	30.290 
00:25	16.4	16.4	16.4	56	3.5	2	5	248	0.00	30.290 
00:30	16.4	16.4	16.4	56	3.5	1	7	248	0.00	30.284 
00:35	16.4	16.4	16.4	56	3.5	2	5	248	0.00	30.284 
00:40	16.4	16.4	16.4	56	3.5	1	4	248	0.00	30.284 
00:45	16.2	16.2	16.2	57	3.7	1	4	248	0.00	30.278 
00:50	16.2	16.2	16.2	57	3.7	1	5	248	0.00	30.278 
00:55	16.2	16.2	16.2	57	3.7	1	4	248	0.00	30.278 
01:00	16.2	16.2	16.2	57	3.7	1	3	248	0.00	30.272 
01:05	16.2	16.2	16.2	57	3.7	1	4	248	0.00	30.272 
01:10	16.2	16.2	16.2	57	3.7	1	5	248	0.00	30.272 
01:15	16.2	16.2	16.2	57	3.7	2	4	248	0.00	30.263 
01:20	16.2	16.2	16.2	58	4.1	2	5	248	0.00	30.263 
01:25	16.2	16.2	16.2	58	4.1	1	6	248	0.00	30.263 
01:30	16.2	16.2	16.2	58	4.1	1	5	225	0.00	30.259 
01:35	16.2	16.2	16.2	58	4.1	1	4	248	0.00	30.259 
01:40	16.2	16.2	16.2	58	4.1	1	3	248	0.00	30.259 
01:45	16.2	16.2	16.2	58	4.1	1	5	248	0.00	30.257 
01:50	16.2	16.2	16.2	58	4.1	1	5	248	0.00	30.257 
01:55	16.2	16.2	16.2	58	4.1	1	4	248	0.00	30.257 
02:00	16.1	16.1	16.1	58	4.0	1	3	248	0.00	30.258 
02:05	16.2	16.2	16.2	58	4.1	1	4	270	0.00	30.258 
02:10	16.2	16.2	16.2	58	4.1	0	3	270	0.00	30.258 
02:15	16.2	16.2	16.2	58	4.1	0	3	270	0.00	30.256 
02:20	16.1	16.1	16.1	59	4.3	0	3	270	0.00	30.256 
02:25	16.1	16.1	16.1	59	4.3	0	3	270	0.00	30.256 
02:30	16.1	16.1	16.1	59	4.3	0	2	270	0.00	30.257 
02:35	15.9	15.9	15.9	59	4.1	0	1	270	0.00	30.257 
02:40	15.9	15.9	15.9	60	4.5	0	1	270	0.00	30.257 
02:45	15.7	15.7	15.7	60	4.3	0	2	270	0.00	30.254 
02:50	15.7	15.7	15.7	60	4.3	0	3	270	0.00	30.254 
02:55	15.7	15.7	15.7	60	4.3	0	2	270	0.00	30.254 
03:00	15.7	15.7	15.7	61	4.7	0	1	270	0.00	30.257 
03:05	15.6	15.6	15.6	61	4.6	0	3	270	0.00	30.257 
03:10	15.6	15.6	15.6	61	4.6	0	2	270	0.00	30.257 
03:15	15.6	15.6	15.6	61	4.6	0	1	270	0.00	30.254 
03:20	15.6	15.6	15.6	61	4.6	0	1	270	0.00	30.254 
03:25	15.6	15.6	15.6	61	4.6	0	2	270	0.00	30.254 
03:30	15.4	15.4	15.4	62	4.7	0	1	270	0.00	30.250 
03:35	15.4	15.4	15.4	62	4.7	0	3	270	0.00	30.250 
03:40	15.4	15.4	15.4	62	4.7	0	3	270	0.00	30.250 
03:45	15.6	15.6	15.6	62	4.9	0	2	270	0.00	30.241 
03:50	15.7	15.7	15.7	62	5.0	0	2	270	0.00	30.241 
03:55	15.9	15.9	15.9	62	5.2	0	2	270	0.00	30.241 
04:00	15.9	15.9	15.9	62	5.2	0	1	270	0.00	30.238 
04:05	15.9	15.9	15.9	62	5.2	0	2	270	0.00	30.238 
04:10	15.9	15.9	15.9	62	5.2	0	2	270	0.00	30.238 
04:15	15.9	15.9	15.9	62	5.2	0	2	270	0.00	30.234 
04:20	15.9	15.9	15.9	62	5.2	0	1	270	0.00	30.234 
04:25	15.9	15.9	15.9	62	5.2	0	2	270	0.00	30.234 
04:30	15.9	15.9	15.9	62	5.2	0	1	270	0.00	30.224 
04:35	16.1	16.1	16.1	62	5.4	0	2	270	0.00	30.224 
04:40	16.1	16.1	16.1	62	5.4	0	1	270	0.00	30.224 
04:45	15.9	15.9	15.9	62	5.2	0	1	270	0.00	30.222 
04:50	15.9	15.9	15.9	63	5.6	0	1	270	0.00	30.222 
04:55	15.7	15.7	15.7	63	5.4	0	1	270	0.00	30.222 
05:00	15.7	15.7	15.7	63	5.4	0	1	270	0.00	30.224 
05:05	15.7	15.7	15.7	63	5.4	0	1	270	0.00	30.224 
05:10	15.6	15.6	15.6	64	5.6	0	1	270	0.00	30.224 
05:15	15.6	15.6	15.6	64	5.6	0	3	270	0.00	30.223 
05:20	15.7	15.7	15.7	64	5.7	0	1	270	0.00	30.223 
05:25	15.6	15.6	15.6	64	5.6	0	2	270	0.00	30.223 
05:30	15.6	15.6	15.6	64	5.6	0	1	270	0.00	30.222 
05:35	15.6	15.6	15.6	65	6.0	0	2	270	0.00	30.222 
05:40	15.7	15.7	15.7	65	6.1	0	2	270	0.00	30.222 
05:45	15.7	15.7	15.7	65	6.1	0	2	270	0.00	30.224 
05:50	15.7	15.7	15.7	65	6.1	0	2	270	0.00	30.224 
05:55	15.9	15.9	15.9	65	6.2	0	1	270	0.00	30.224 
06:00	15.9	15.9	15.9	65	6.2	0	2	270	0.00	30.225 
06:05	16.1	16.1	16.1	65	6.4	0	1	270	0.00	30.225 
06:10	16.1	16.1	16.1	65	6.4	0	1	270	0.00	30.225 
06:15	16.1	16.1	16.1	65	6.4	0	1	270	0.00	30.220 
06:20	16.1	16.1	16.1	65	6.4	0	0	---	0.00	30.220 
06:25	16.1	16.1	16.1	65	6.4	0	1	270	0.00	30.220 
06:30	16.1	16.1	16.1	66	6.8	0	2	270	0.00	30.224 
06:35	16.1	16.1	16.1	66	6.8	0	1	270	0.00	30.224 
06:40	16.1	16.1	16.1	66	6.8	0	2	270	0.00	30.224 
06:45	16.2	16.2	16.2	66	6.9	0	2	270	0.00	30.222 
06:50	16.2	16.2	16.2	66	6.9	0	2	270	0.00	30.222 
06:55	16.2	16.2	16.2	66	6.9	0	1	270	0.00	30.222 
07:00	16.4	16.4	16.4	66	7.1	0	3	270	0.00	30.225 
07:05	16.5	16.5	16.5	66	7.2	0	1	270	0.00	30.225 
07:10	16.7	16.7	16.7	66	7.3	0	1	270	0.00	30.225 
07:15	16.9	16.9	16.9	66	7.5	0	1	270	0.00	30.232 
07:20	17.2	17.2	17.2	66	7.8	0	3	270	0.00	30.232 
07:25	17.3	17.3	17.3	66	7.9	0	3	270	0.00	30.232 
07:30	17.7	17.7	17.7	66	8.3	0	2	270	0.00	30.234 
07:35	18.0	18.0	18.0	66	8.6	0	2	270	0.00	30.234 
07:40	18.4	18.4	18.4	65	8.6	0	2	270	0.00	30.234 
07:45	18.8	18.8	18.8	65	9.0	0	2	270	0.00	30.239 
07:50	18.9	18.9	18.9	65	9.1	0	2	270	0.00	30.239 
07:55	19.2	19.2	19.2	64	9.0	0	3	270	0.00	30.239 
08:00	19.4	19.4	19.4	64	9.2	0	2	270	0.00	30.250 
08:05	19.7	19.7	19.7	64	9.5	0	1	270	0.00	30.250 
08:10	19.9	19.9	19.9	64	9.7	1	3	270	0.00	30.250 
08:15	20.0	20.0	20.0	63	9.5	0	3	270	0.00	30.254 
08:20	20.0	20.0	20.0	63	9.5	0	2	270	0.00	30.254 
08:25	19.9	19.9	19.9	63	9.4	0	2	270	0.00	30.254 
08:30	19.9	19.9	19.9	63	9.4	0	3	270	0.00	30.248 
08:35	19.7	19.7	19.7	63	9.2	0	3	270	0.00	30.248 
08:40	19.7	19.7	19.7	63	9.2	0	3	270	0.00	30.248 
08:45	19.7	19.7	19.7	63	9.2	0	3	270	0.00	30.256 
08:50	19.9	19.9	19.9	63	9.4	0	2	270	0.00	30.256 
08:55	20.0	20.0	20.0	63	9.5	1	3	270	0.00	30.256 
09:00	20.2	20.2	20.2	63	9.7	0	1	270	0.00	30.256 
09:05	20.3	20.3	20.3	63	9.7	0	1	270	0.00	30.256 
09:10	20.5	20.5	20.5	63	9.9	0	1	270	0.00	30.256 
09:15	20.6	20.6	20.6	63	10.0	0	3	270	0.00	30.252 
09:20	21.0	21.0	21.0	62	10.1	0	1	270	0.00	30.252 
09:25	21.1	21.1	21.1	62	10.1	0	1	270	0.00	30.252 
09:30	21.4	21.4	21.4	62	10.4	0	1	270	0.00	30.256 
09:35	21.8	21.8	21.8	61	10.4	0	1	270	0.00	30.256 
09:40	21.9	21.9	21.9	61	10.5	0	1	270	0.00	30.256 
09:45	22.2	22.2	22.2	61	10.8	0	1	270	0.00	30.261 
09:50	22.4	22.4	22.4	60	10.6	0	2	270	0.00	30.261 
09:55	22.5	22.5	22.5	60	10.7	1	3	270	0.00	30.261 
10:00	22.9	22.9	22.9	59	10.7	0	2	270	0.00	30.264 
10:05	23.0	23.0	23.0	59	10.8	0	2	270	0.00	30.264 
10:10	23.2	23.2	23.2	59	11.0	0	1	270	0.00	30.264 
10:15	23.3	23.3	23.3	59	11.1	0	2	270	0.00	30.261 
10:20	23.6	23.6	23.6	59	11.4	0	1	270	0.00	30.261 
10:25	23.8	23.8	23.8	59	11.6	0	2	270	0.00	30.261 
10:30	24.1	24.1	24.1	58	11.5	0	1	270	0.00	30.255 
10:35	24.2	24.2	24.2	58	11.6	0	2	270	0.00	30.255 
10:40	24.4	24.4	24.4	58	11.8	0	3	270	0.00	30.255 
10:45	24.7	24.7	24.7	58	12.1	0	1	270	0.00	30.252 
10:50	25.0	25.0	25.0	58	12.3	0	1	270	0.00	30.252 
10:55	25.1	25.1	25.1	57	12.0	1	4	270	0.00	30.252 
11:00	25.4	25.4	25.4	57	12.3	0	1	270	0.00	30.250 
11:05	25.6	25.6	25.6	56	12.1	0	2	270	0.00	30.250 
11:10	25.7	25.7	25.7	56	12.2	0	2	270	0.00	30.250 
11:15	25.8	25.8	25.8	56	12.3	0	2	270	0.00	30.247 
11:20	26.1	26.1	26.1	56	12.6	0	2	270	0.00	30.247 
11:25	26.3	26.3	26.3	55	12.4	0	1	270	0.00	30.247 
11:30	26.4	26.4	26.4	56	12.9	0	1	270	0.00	30.242 
11:35	26.6	26.6	26.6	55	12.6	0	1	270	0.00	30.242 
11:40	26.9	26.9	26.9	56	13.3	0	0	---	0.00	30.242 
11:45	27.0	27.0	27.0	55	13.0	0	1	270	0.00	30.230 
11:50	27.0	27.0	27.0	54	12.6	0	2	270	0.00	30.230 
11:55	27.2	27.2	27.2	54	12.8	0	1	270	0.00	30.230 
12:00	27.2	27.2	27.2	54	12.8	0	2	270	0.00	30.226 
12:05	27.3	27.3	27.3	55	13.3	0	1	270	0.00	30.226 
12:10	27.5	27.5	27.5	54	13.1	0	2	270	0.00	30.226 
12:15	27.8	27.8	27.8	54	13.3	0	2	270	0.00	30.218 
12:20	28.1	28.1	28.1	55	14.0	0	1	270	0.00	30.218 
12:25	28.4	28.4	28.4	56	14.7	0	2	270	0.00	30.218 
12:30	28.7	28.7	28.7	54	14.2	0	2	270	0.00	30.214 
12:35	28.8	28.8	28.8	54	14.3	0	2	270	0.00	30.214 
12:40	29.0	29.0	29.0	54	14.5	1	3	270	0.00	30.214 
12:45	29.1	29.1	29.1	54	14.6	0	1	270	0.00	30.202 
12:50	29.4	29.4	29.4	55	15.3	1	3	248	0.00	30.202 
12:55	29.5	29.5	29.5	54	14.9	0	2	248	0.00	30.202 
13:00	29.4	29.4	29.4	55	15.3	0	2	248	0.00	30.202 
13:05	29.1	29.1	29.1	56	15.4	0	2	248	0.00	30.202 
13:10	29.1	29.1	29.1	56	15.4	1	3	248	0.00	30.202 
13:15	29.1	29.1	29.1	57	15.8	1	2	248	0.00	30.202 
13:20	29.1	29.1	29.1	56	15.4	0	2	248	0.00	30.202 
13:25	29.3	29.3	29.3	56	15.6	0	1	248	0.00	30.202 
13:30	29.3	29.3	29.3	55	15.2	0	2	248	0.00	30.199 
13:35	29.1	29.1	29.1	57	15.8	0	3	248	0.00	30.199 
13:40	29.1	29.1	29.1	57	15.8	0	1	248	0.00	30.199 
13:45	29.1	29.1	29.1	58	16.2	0	1	248	0.00	30.198 
13:50	29.0	29.0	29.0	57	15.7	0	3	248	0.00	30.198 
13:55	29.0	29.0	29.0	57	15.7	0	1	248	0.00	30.198 
14:00	29.0	29.0	29.0	57	15.7	1	2	248	0.00	30.194 
14:05	28.8	28.8	28.8	58	15.9	0	3	248	0.00	30.194 
14:10	28.7	28.7	28.7	57	15.4	0	2	248	0.00	30.194 
14:15	28.5	28.5	28.5	58	15.6	0	1	248	0.00	30.186 
14:20	28.4	28.4	28.4	58	15.5	0	2	248	0.00	30.186 
14:25	28.2	28.2	28.2	59	15.7	0	2	248	0.00	30.186 
14:30	28.2	28.2	28.2	59	15.7	0	1	248	0.00	30.184 
14:35	28.4	28.4	28.4	59	15.9	0	2	248	0.00	30.184 
14:40	28.8	28.8	28.8	58	15.9	0	2	248	0.00	30.184 
14:45	29.1	29.1	29.1	58	16.2	0	3	248	0.00	30.184 
14:50	29.3	29.3	29.3	58	16.4	0	2	248	0.00	30.184 
14:55	29.3	29.3	29.3	57	16.0	0	2	248	0.00	30.184 
15:00	29.3	29.3	29.3	58	16.4	0	2	248	0.00	30.183 
15:05	29.4	29.4	29.4	58	16.5	0	1	248	0.00	30.183 
15:10	29.5	29.5	29.5	58	16.6	0	2	248	0.00	30.183 
15:15	29.7	29.7	29.7	58	16.8	0	1	248	0.00	30.186 
15:20	29.7	29.7	29.7	58	16.8	0	3	248	0.00	30.186 
15:25	29.7	29.7	29.7	58	16.8	0	3	248	0.00	30.186 
15:30	29.5	29.5	29.5	58	16.6	0	2	248	0.00	30.193 
15:35	29.4	29.4	29.4	59	16.9	0	0	---	0.00	30.193 
15:40	29.3	29.3	29.3	60	17.2	0	1	248	0.00	30.193 
15:45	29.3	29.3	29.3	60	17.2	0	1	248	0.00	30.192 
15:50	29.4	29.4	29.4	61	17.6	0	2	248	0.00	30.192 
15:55	29.3	29.3	29.3	61	17.5	1	2	248	0.00	30.192 
16:00	29.3	29.3	29.3	61	17.5	1	4	248	0.00	30.185 
16:05	29.1	29.1	29.1	61	17.4	2	5	248	0.00	30.185 
16:10	29.0	29.0	29.0	61	17.3	1	4	248	0.00	30.185 
16:15	29.0	29.0	29.0	62	17.6	1	3	90	0.00	30.175 
16:20	28.8	28.8	28.8	63	17.8	1	3	90	0.00	30.175 
16:25	28.8	28.8	28.8	63	17.8	1	3	90	0.00	30.175 
16:30	28.7	28.7	28.7	64	18.1	1	4	90	0.00	30.175 
16:35	28.7	28.7	28.7	65	18.4	1	3	90	0.00	30.175 
16:40	28.7	28.7	28.7	65	18.4	1	4	90	0.00	30.175 
16:45	28.7	28.7	28.7	65	18.4	1	4	90	0.00	30.172 
16:50	28.7	28.7	28.7	66	18.8	1	4	90	0.00	30.172 
16:55	28.5	28.5	28.5	66	18.6	0	3	90	0.00	30.172 
17:00	28.5	28.5	28.5	67	19.0	1	3	90	0.00	30.177 
17:05	28.4	28.4	28.4	68	19.2	1	4	90	0.00	30.177 
17:10	28.4	28.4	28.4	68	19.2	1	4	90	0.00	30.177 
17:15	28.2	28.2	28.2	68	19.0	2	5	90	0.00	30.176 
17:20	28.1	28.1	28.1	68	18.9	2	7	90	0.00	30.176 
17:25	28.1	28.1	28.1	68	18.9	2	5	90	0.00	30.176 
17:30	27.9	27.9	27.9	68	18.7	2	5	90	0.00	30.176 
17:35	27.9	27.9	27.9	68	18.7	1	4	45	0.00	30.176 
17:40	27.8	27.8	27.8	69	19.0	1	3	45	0.00	30.176 
17:45	27.8	27.8	27.8	69	19.0	2	5	90	0.00	30.183 
17:50	27.8	27.8	27.8	69	19.0	2	5	90	0.00	30.183 
17:55	27.6	27.6	27.6	69	18.8	2	4	90	0.00	30.183 
18:00	27.6	27.6	27.6	70	19.1	1	5	90	0.00	30.190 
18:05	27.5	27.5	27.5	70	19.0	1	3	90	0.00	30.190 
18:10	27.5	27.5	27.5	71	19.4	1	2	90	0.00	30.190 
18:15	27.3	27.3	27.3	71	19.2	1	5	90	0.00	30.201 
18:20	27.2	27.2	27.2	70	18.7	1	3	90	0.00	30.201 
18:25	27.2	27.2	27.2	70	18.7	1	4	90	0.00	30.201 
18:30	27.2	27.2	27.2	70	18.7	2	4	90	0.00	30.202 
18:35	27.2	27.2	27.2	71	19.1	1	4	90	0.00	30.202 
18:40	27.0	27.0	27.0	71	18.9	1	5	90	0.00	30.202 
18:45	27.0	27.0	27.0	71	18.9	2	4	90	0.00	30.203 
18:50	26.9	26.9	26.9	71	18.8	1	2	90	0.00	30.203 
18:55	26.9	26.9	26.9	71	18.8	1	4	90	0.00	30.203 
19:00	26.9	26.9	26.9	71	18.8	1	3	90	0.00	30.211 
19:05	26.7	26.7	26.7	71	18.6	1	3	90	0.00	30.211 
19:10	26.7	26.7	26.7	71	18.6	1	3	90	0.00	30.211 
19:15	26.7	26.7	26.7	71	18.6	1	4	90	0.00	30.210 
19:20	26.7	26.7	26.7	71	18.6	2	5	90	0.00	30.210 
19:25	26.7	26.7	26.7	71	18.6	1	5	90	0.00	30.210 
19:30	26.7	26.7	26.7	70	18.3	1	4	90	0.00	30.212 
19:35	26.9	26.9	26.9	70	18.4	1	4	90	0.00	30.212 
19:40	26.9	26.9	26.9	71	18.8	1	3	68	0.00	30.212 
19:45	26.9	26.9	26.9	71	18.8	1	3	90	0.00	30.214 
19:50	26.9	26.9	26.9	71	18.8	1	3	90	0.00	30.214 
19:55	26.9	26.9	26.9	71	18.8	1	4	90	0.00	30.214 
20:00	26.9	26.9	26.9	71	18.8	2	4	90	0.00	30.214 
20:05	26.9	26.9	26.9	70	18.4	1	5	90	0.00	30.214 
20:10	26.9	26.9	26.9	71	18.8	1	3	90	0.00	30.214 
20:15	26.9	26.9	26.9	71	18.8	1	3	90	0.00	30.214 
20:20	26.9	26.9	26.9	71	18.8	1	3	90	0.00	30.214 
20:25	26.9	26.9	26.9	72	19.1	1	3	90	0.00	30.214 
20:30	26.9	26.9	26.9	72	19.1	1	3	90	0.00	30.212 
20:35	26.9	26.9	26.9	72	19.1	1	4	90	0.00	30.212 
20:40	26.9	26.9	26.9	73	19.4	2	6	90	0.00	30.212 
20:45	26.7	26.7	26.7	73	19.2	2	4	90	0.00	30.210 
20:50	26.7	26.7	26.7	73	19.2	1	2	90	0.00	30.210 
20:55	26.7	26.7	26.7	74	19.5	2	4	90	0.00	30.210 
21:00	26.7	26.7	26.7	74	19.5	1	4	90	0.00	30.211 
21:05	26.6	26.6	26.6	74	19.5	1	4	90	0.00	30.211 
21:10	26.6	26.6	26.6	74	19.5	1	4	90	0.00	30.211 
21:15	26.6	26.6	26.6	75	19.8	1	4	90	0.00	30.202 
21:20	26.6	26.6	26.6	75	19.8	2	4	90	0.00	30.202 
21:25	26.6	26.6	26.6	75	19.8	2	5	90	0.00	30.202 
21:30	26.4	26.4	26.4	75	19.6	2	4	90	0.00	30.192 
21:35	26.4	26.4	26.4	75	19.6	2	7	90	0.00	30.192 
21:40	26.4	26.4	26.4	76	19.9	2	4	90	0.00	30.192 
21:45	26.4	26.4	26.4	76	19.9	2	6	90	0.00	30.192 
21:50	26.4	26.4	26.4	76	19.9	2	4	90	0.00	30.192 
21:55	26.4	26.4	26.4	76	19.9	2	5	90	0.00	30.192 
22:00	26.6	26.6	26.6	76	20.1	2	5	112	0.00	30.186 
22:05	26.6	26.6	26.6	76	20.1	2	4	112	0.00	30.186 
22:10	26.6	26.6	26.6	76	20.1	1	3	112	0.00	30.186 
22:15	26.6	26.6	26.6	75	19.8	3	5	90	0.00	30.179 
22:20	26.6	26.6	26.6	75	19.8	1	5	90	0.00	30.179 
22:25	26.7	26.7	26.7	75	19.9	1	4	90	0.00	30.179 
22:30	26.7	26.7	26.7	75	19.9	2	4	90	0.00	30.179 
22:35	26.7	26.7	26.7	75	19.9	2	5	90	0.00	30.179 
22:40	26.7	26.7	26.7	76	20.2	1	5	90	0.00	30.179 
22:45	26.7	26.7	26.7	76	20.2	2	5	90	0.00	30.179 
22:50	26.7	26.7	26.7	76	20.2	2	5	90	0.00	30.179 
22:55	26.7	26.7	26.7	77	20.5	2	4	90	0.00	30.179 
23:00	26.7	26.7	26.7	78	20.8	1	3	90	0.00	30.188 
23:05	26.7	26.7	26.7	79	21.1	1	4	90	0.00	30.188 
23:10	26.6	26.6	26.6	80	21.3	1	5	90	0.00	30.188 
23:15	26.4	26.4	26.4	81	21.4	1	5	90	0.00	30.185 
23:20	26.4	26.4	26.4	82	21.7	1	4	90	0.00	30.185 
23:25	26.3	26.3	26.3	83	21.9	1	3	90	0.00	30.185 
23:30	26.1	26.1	26.1	85	22.2	1	4	90	0.00	30.187 
23:35	26.1	26.1	26.1	86	22.5	2	4	90	0.00	30.187 
23:40	26.0	26.0	26.0	87	22.7	2	4	90	0.00	30.187 
23:45	26.0	26.0	26.0	88	22.9	1	4	90	0.00	30.185 
23:50	26.0	26.0	26.0	88	22.9	2	4	90	0.00	30.185 
23:55	26.0	26.0	26.0	88	22.9	1	4	90	0.00	30.185 

CoCoRaHS
IN-AL-39
A2 Web Hosting
Creative Commons License
GoDaddy
search engine by freefind advanced

loaded 2018-11-15 16:05:42 • last modified 2010-11-18 10:43:29
Privacy PolicyDisclaimer
• wx.awcolley.com is powered by PmWiki v.2002016 •
• all content (unless otherwise noted) © 2018 A W Colley